Nord Snow Queen — 9V7636 — position and weather

sailwx.info

Track history (hours):
 
Tides and Currents Weather Stations Pressure Air Temp Water Temp Dewpoint Dewpoint Depression Visibility Wind Speed Wind Dir Waves Ship Positions

Nord Snow Queen

Last reported at 2018-Apr-18 11:18 UTC. Time now 2018-Apr-20 22:18 UTC.
Position N 36°07' W 005°22'.

Length 183 m; draft 7.2 m.

Type: Ship. MMSI: 564359000.

Date/timePositionNaut miles runAvg speedWind from/ knotsBaromVisibWave heightAir tempDewpointWater temp
2018-Apr-18 11:18N 36°07' W 005°22'  
2018-Apr-14 16:18N 28°53' W 015°36'511.5
2018-Apr-14 15:54N 28°50' W 015°40'1211.6
2018-Apr-14 14:53N 28°42' W 015°50'1111.5
2018-Apr-14 13:55N 28°35' W 015°60'511.6
2018-Apr-14 13:30N 28°32' W 016°04'611.4
2018-Apr-14 13:00N 28°29' W 016°10'2 4.2
2018-Apr-14 12:28N 28°29' W 016°12'0 0.1
2018-Apr-14 11:58N 28°29' W 016°12'0 0.0
2018-Apr-14 11:28N 28°29' W 016°12'0 0.1
2018-Apr-14 10:58N 28°29' W 016°12'0 0.0
2018-Apr-14 10:28N 28°29' W 016°12'0 0.0
2018-Apr-14 09:55N 28°29' W 016°12'0 0.1
2018-Apr-14 09:28N 28°29' W 016°12'0 0.0
2018-Apr-14 08:58N 28°29' W 016°12'0 0.0
2018-Apr-14 08:28N 28°29' W 016°12'0 0.1
2018-Apr-14 07:58N 28°29' W 016°12'0 0.0
2018-Apr-14 07:28N 28°29' W 016°12'0 0.0
2018-Apr-14 06:58N 28°29' W 016°12'0 0.0
2018-Apr-14 06:28N 28°29' W 016°12'0 0.0
2018-Apr-14 05:58N 28°29' W 016°12'0 0.0
2018-Apr-14 05:28N 28°29' W 016°12'0 0.0
2018-Apr-14 04:58N 28°29' W 016°12'0 0.1
2018-Apr-14 04:28N 28°29' W 016°12'0 0.0
2018-Apr-14 03:58N 28°29' W 016°12'0 0.0
2018-Apr-14 03:25N 28°29' W 016°12'0 0.0
2018-Apr-14 02:58N 28°29' W 016°12'0 0.1
2018-Apr-14 02:28N 28°29' W 016°12'0 0.2
2018-Apr-14 02:00N 28°29' W 016°12'3 6.2
2018-Apr-14 01:30N 28°27' W 016°15'1 0.0
2018-Apr-13 02:58N 28°27' W 016°16'0 0.4
2018-Apr-13 02:30N 28°27' W 016°16'2 3.6
2018-Apr-13 02:00N 28°27' W 016°14'3 6.2
2018-Apr-13 01:30N 28°26' W 016°10'611.7
2018-Apr-13 00:59N 28°23' W 016°04'811.3
2018-Apr-13 00:19N 28°20' W 015°57'411.4
2018-Apr-13 00:00N 28°18' W 015°53'611.7
2018-Apr-12 23:28N 28°18' W 015°46'511.5
2018-Apr-12 23:00N 28°17' W 015°40'611.3
2018-Apr-12 22:30N 28°17' W 015°33'611.3
2018-Apr-12 22:00N 28°16' W 015°27'510.8
2018-Apr-12 21:30N 28°14' W 015°21'5 9.1
2018-Apr-12 20:59N 28°11' W 015°18'510.3
2018-Apr-12 20:30N 28°06' W 015°18'510.1
2018-Apr-12 20:00N 28°01' W 015°18'5 9.2
2018-Apr-12 19:30N 27°58' W 015°22'0 0.0
2018-Apr-11 10:26N 27°58' W 015°23'0 0.6
2018-Apr-11 10:00N 27°58' W 015°22'4 8.1
2018-Apr-11 09:30N 28°02' W 015°21'611.0
2018-Apr-11 09:00N 28°07' W 015°23'0 0.7
2018-Apr-11 08:30N 28°07' W 015°24'0 0.0
2018-Apr-11 08:00N 28°07' W 015°24'0 0.0
2018-Apr-11 07:30N 28°07' W 015°24'0 0.0
2018-Apr-11 07:00N 28°07' W 015°24'0 0.0
2018-Apr-11 06:30N 28°07' W 015°24'0 0.0
2018-Apr-11 06:00N 28°07' W 015°24'0 0.0
2018-Apr-11 05:18N 28°07' W 015°24'0 0.0
2018-Apr-11 04:51N 28°07' W 015°24'0 0.0
2018-Apr-11 04:24N 28°07' W 015°24'0 0.0
2018-Apr-11 03:54N 28°07' W 015°24'0 0.0
2018-Apr-11 03:24N 28°07' W 015°24'0 0.0
2018-Apr-11 02:54N 28°07' W 015°24'0 0.0
2018-Apr-11 02:24N 28°07' W 015°24'0 0.0
2018-Apr-11 01:54N 28°07' W 015°24'0 0.0
2018-Apr-11 01:27N 28°07' W 015°24'0 0.0
2018-Apr-11 00:57N 28°07' W 015°24'0 0.0
2018-Apr-11 00:27N 28°07' W 015°24'0 0.0
2018-Apr-10 23:57N 28°07' W 015°24'0 0.0
2018-Apr-10 23:27N 28°07' W 015°24'0 0.0
2018-Apr-10 22:57N 28°07' W 015°24'0 0.0
2018-Apr-10 22:30N 28°07' W 015°24'0 0.0
2018-Apr-10 22:00N 28°07' W 015°24'0 0.0
2018-Apr-10 21:30N 28°07' W 015°24'0 0.0
2018-Apr-10 21:00N 28°07' W 015°24'0 0.0
2018-Apr-10 20:30N 28°07' W 015°24'0 0.0
2018-Apr-10 20:00N 28°07' W 015°24'0 0.0
2018-Apr-10 19:30N 28°07' W 015°24'0 0.0
2018-Apr-10 19:00N 28°07' W 015°24'0 0.0
2018-Apr-10 18:30N 28°07' W 015°24'0 0.0
2018-Apr-10 18:00N 28°07' W 015°24'0 0.0
2018-Apr-10 17:30N 28°07' W 015°24'0 0.0
2018-Apr-10 17:00N 28°07' W 015°24'0 0.0
2018-Apr-10 16:30N 28°07' W 015°24'0 0.0
2018-Apr-10 16:00N 28°07' W 015°24'0 0.0
2018-Apr-10 15:21N 28°07' W 015°24'0 0.0
2018-Apr-10 14:51N 28°07' W 015°24'0 0.0
2018-Apr-10 14:24N 28°07' W 015°24'0 0.0
2018-Apr-10 13:54N 28°07' W 015°24'0 0.0
2018-Apr-10 13:24N 28°07' W 015°24'0 0.1
2018-Apr-10 12:54N 28°07' W 015°24'0 0.1
2018-Apr-10 12:30N 28°07' W 015°24'1 1.5
2018-Apr-10 12:00N 28°07' W 015°23'2 4.6
2018-Apr-10 11:30N 28°05' W 015°22'5 9.1
2018-Apr-10 11:00N 28°01' W 015°20'4 6.4
2018-Apr-10 10:27N 27°58' W 015°22'1 2.7
2018-Apr-10 10:00N 27°58' W 015°21'510.2
2018-Apr-10 09:30N 28°03' W 015°22'4 8.2
2018-Apr-10 09:00N 28°07' W 015°23'1 1.3
2018-Apr-10 08:30N 28°08' W 015°24'0 0.3
2018-Apr-10 07:59N 28°07' W 015°24'0 0.0
2018-Apr-10 07:29N 28°07' W 015°24'0 0.0
2018-Apr-10 06:59N 28°07' W 015°24'0 0.0
2018-Apr-10 06:29N 28°08' W 015°24'0 0.0
2018-Apr-10 05:56N 28°07' W 015°24'0 0.0
2018-Apr-10 05:29N 28°07' W 015°24'0 0.0
2018-Apr-10 04:59N 28°07' W 015°24'0 0.0
2018-Apr-10 04:29N 28°07' W 015°24'0 0.0
2018-Apr-10 03:47N 28°07' W 015°24'0 0.0
2018-Apr-10 03:29N 28°07' W 015°24'0 0.0
2018-Apr-10 02:59N 28°07' W 015°24'0 0.0
2018-Apr-10 02:20N 28°07' W 015°24'0 0.0
2018-Apr-10 01:50N 28°07' W 015°24'0 0.0
2018-Apr-10 01:20N 28°07' W 015°24'0 0.0
2018-Apr-10 00:53N 28°07' W 015°24'0 0.0
2018-Apr-10 00:23N 28°07' W 015°24'0 0.0
2018-Apr-09 23:53N 28°07' W 015°24'0 0.0
2018-Apr-09 23:23N 28°07' W 015°24'0 0.0
2018-Apr-09 22:53N 28°07' W 015°24'0 0.0
2018-Apr-09 22:23N 28°07' W 015°24'0 0.0
2018-Apr-09 21:53N 28°07' W 015°24'0 0.0
2018-Apr-09 21:26N 28°07' W 015°24'0 0.0
2018-Apr-09 20:56N 28°07' W 015°24'0 0.0
2018-Apr-09 20:26N 28°07' W 015°24'0 0.0
2018-Apr-09 19:56N 28°07' W 015°24'0 0.0
2018-Apr-09 19:26N 28°07' W 015°24'0 0.0
2018-Apr-09 18:59N 28°07' W 015°24'0 0.0
2018-Apr-09 18:29N 28°07' W 015°24'0 0.0
2018-Apr-09 17:59N 28°07' W 015°24'0 0.1
2018-Apr-09 17:29N 28°07' W 015°24'0 0.0
2018-Apr-09 16:59N 28°07' W 015°24'0 0.0
2018-Apr-09 16:29N 28°07' W 015°24'0 0.0
2018-Apr-09 15:59N 28°07' W 015°24'0 0.0
2018-Apr-09 15:29N 28°07' W 015°24'0 0.0
2018-Apr-09 14:59N 28°07' W 015°24'0 0.0
2018-Apr-09 14:29N 28°08' W 015°24'0 0.6
2018-Apr-09 14:01N 28°07' W 015°24'0 0.7
2018-Apr-09 13:30N 28°07' W 015°23'1 2.2
2018-Apr-09 13:00N 28°08' W 015°22'2 4.2
2018-Apr-09 12:30N 28°09' W 015°20'611.4
2018-Apr-09 12:00N 28°14' W 015°16'612.0
2018-Apr-09 11:30N 28°18' W 015°11'612.3
2018-Apr-09 11:01N 28°23' W 015°07'612.2
2018-Apr-09 10:30N 28°27' W 015°02'612.0
2018-Apr-09 10:00N 28°31' W 014°57'612.1
2018-Apr-09 09:29N 28°36' W 014°52'  
Track history (hours):
 
Tides and Currents Weather Stations Pressure Air Temp Water Temp Dewpoint Dewpoint Depression Visibility Wind Speed Wind Dir Waves Ship Positions

Nord Snow Queen

Last reported at 2018-Apr-18 11:18 UTC. Time now 2018-Apr-20 22:18 UTC.
Position N 36°07' W 005°22'.

Length 183 m; draft 7.2 m.

Type: Ship. MMSI: 564359000.

Date/timePositionNaut miles runAvg speedWind from/ knotsBaromVisibWave heightAir tempDewpointWater temp
2018-Apr-18 11:18N 36°07' W 005°22'  
2018-Apr-14 16:18N 28°53' W 015°36'511.5
2018-Apr-14 15:54N 28°50' W 015°40'1211.6
2018-Apr-14 14:53N 28°42' W 015°50'1111.5
2018-Apr-14 13:55N 28°35' W 015°60'511.6
2018-Apr-14 13:30N 28°32' W 016°04'611.4
2018-Apr-14 13:00N 28°29' W 016°10'2 4.2
2018-Apr-14 12:28N 28°29' W 016°12'0 0.1
2018-Apr-14 11:58N 28°29' W 016°12'0 0.0
2018-Apr-14 11:28N 28°29' W 016°12'0 0.1
2018-Apr-14 10:58N 28°29' W 016°12'0 0.0
2018-Apr-14 10:28N 28°29' W 016°12'0 0.0
2018-Apr-14 09:55N 28°29' W 016°12'0 0.1
2018-Apr-14 09:28N 28°29' W 016°12'0 0.0
2018-Apr-14 08:58N 28°29' W 016°12'0 0.0
2018-Apr-14 08:28N 28°29' W 016°12'0 0.1
2018-Apr-14 07:58N 28°29' W 016°12'0 0.0
2018-Apr-14 07:28N 28°29' W 016°12'0 0.0
2018-Apr-14 06:58N 28°29' W 016°12'0 0.0
2018-Apr-14 06:28N 28°29' W 016°12'0 0.0
2018-Apr-14 05:58N 28°29' W 016°12'0 0.0
2018-Apr-14 05:28N 28°29' W 016°12'0 0.0
2018-Apr-14 04:58N 28°29' W 016°12'0 0.1
2018-Apr-14 04:28N 28°29' W 016°12'0 0.0
2018-Apr-14 03:58N 28°29' W 016°12'0 0.0
2018-Apr-14 03:25N 28°29' W 016°12'0 0.0
2018-Apr-14 02:58N 28°29' W 016°12'0 0.1
2018-Apr-14 02:28N 28°29' W 016°12'0 0.2
2018-Apr-14 02:00N 28°29' W 016°12'3 6.2
2018-Apr-14 01:30N 28°27' W 016°15'1 0.0
2018-Apr-13 02:58N 28°27' W 016°16'0 0.4
2018-Apr-13 02:30N 28°27' W 016°16'2 3.6
2018-Apr-13 02:00N 28°27' W 016°14'3 6.2
2018-Apr-13 01:30N 28°26' W 016°10'611.7
2018-Apr-13 00:59N 28°23' W 016°04'811.3
2018-Apr-13 00:19N 28°20' W 015°57'411.4
2018-Apr-13 00:00N 28°18' W 015°53'611.7
2018-Apr-12 23:28N 28°18' W 015°46'511.5
2018-Apr-12 23:00N 28°17' W 015°40'611.3
2018-Apr-12 22:30N 28°17' W 015°33'611.3
2018-Apr-12 22:00N 28°16' W 015°27'510.8
2018-Apr-12 21:30N 28°14' W 015°21'5 9.1
2018-Apr-12 20:59N 28°11' W 015°18'510.3
2018-Apr-12 20:30N 28°06' W 015°18'510.1
2018-Apr-12 20:00N 28°01' W 015°18'5 9.2
2018-Apr-12 19:30N 27°58' W 015°22'0 0.0
2018-Apr-11 10:26N 27°58' W 015°23'0 0.6
2018-Apr-11 10:00N 27°58' W 015°22'4 8.1
2018-Apr-11 09:30N 28°02' W 015°21'611.0
2018-Apr-11 09:00N 28°07' W 015°23'0 0.7
2018-Apr-11 08:30N 28°07' W 015°24'0 0.0
2018-Apr-11 08:00N 28°07' W 015°24'0 0.0
2018-Apr-11 07:30N 28°07' W 015°24'0 0.0
2018-Apr-11 07:00N 28°07' W 015°24'0 0.0
2018-Apr-11 06:30N 28°07' W 015°24'0 0.0
2018-Apr-11 06:00N 28°07' W 015°24'0 0.0
2018-Apr-11 05:18N 28°07' W 015°24'0 0.0
2018-Apr-11 04:51N 28°07' W 015°24'0 0.0
2018-Apr-11 04:24N 28°07' W 015°24'0 0.0
2018-Apr-11 03:54N 28°07' W 015°24'0 0.0
2018-Apr-11 03:24N 28°07' W 015°24'0 0.0
2018-Apr-11 02:54N 28°07' W 015°24'0 0.0
2018-Apr-11 02:24N 28°07' W 015°24'0 0.0
2018-Apr-11 01:54N 28°07' W 015°24'0 0.0
2018-Apr-11 01:27N 28°07' W 015°24'0 0.0
2018-Apr-11 00:57N 28°07' W 015°24'0 0.0
2018-Apr-11 00:27N 28°07' W 015°24'0 0.0
2018-Apr-10 23:57N 28°07' W 015°24'0 0.0
2018-Apr-10 23:27N 28°07' W 015°24'0 0.0
2018-Apr-10 22:57N 28°07' W 015°24'0 0.0
2018-Apr-10 22:30N 28°07' W 015°24'0 0.0
2018-Apr-10 22:00N 28°07' W 015°24'0 0.0
2018-Apr-10 21:30N 28°07' W 015°24'0 0.0
2018-Apr-10 21:00N 28°07' W 015°24'0 0.0
2018-Apr-10 20:30N 28°07' W 015°24'0 0.0
2018-Apr-10 20:00N 28°07' W 015°24'0 0.0
2018-Apr-10 19:30N 28°07' W 015°24'0 0.0
2018-Apr-10 19:00N 28°07' W 015°24'0 0.0
2018-Apr-10 18:30N 28°07' W 015°24'0 0.0
2018-Apr-10 18:00N 28°07' W 015°24'0 0.0
2018-Apr-10 17:30N 28°07' W 015°24'0 0.0
2018-Apr-10 17:00N 28°07' W 015°24'0 0.0
2018-Apr-10 16:30N 28°07' W 015°24'0 0.0
2018-Apr-10 16:00N 28°07' W 015°24'0 0.0
2018-Apr-10 15:21N 28°07' W 015°24'0 0.0
2018-Apr-10 14:51N 28°07' W 015°24'0 0.0
2018-Apr-10 14:24N 28°07' W 015°24'0 0.0
2018-Apr-10 13:54N 28°07' W 015°24'0 0.0
2018-Apr-10 13:24N 28°07' W 015°24'0 0.1
2018-Apr-10 12:54N 28°07' W 015°24'0 0.1
2018-Apr-10 12:30N 28°07' W 015°24'1 1.5
2018-Apr-10 12:00N 28°07' W 015°23'2 4.6
2018-Apr-10 11:30N 28°05' W 015°22'5 9.1
2018-Apr-10 11:00N 28°01' W 015°20'4 6.4
2018-Apr-10 10:27N 27°58' W 015°22'1 2.7
2018-Apr-10 10:00N 27°58' W 015°21'510.2
2018-Apr-10 09:30N 28°03' W 015°22'4 8.2
2018-Apr-10 09:00N 28°07' W 015°23'1 1.3
2018-Apr-10 08:30N 28°08' W 015°24'0 0.3
2018-Apr-10 07:59N 28°07' W 015°24'0 0.0
2018-Apr-10 07:29N 28°07' W 015°24'0 0.0
2018-Apr-10 06:59N 28°07' W 015°24'0 0.0
2018-Apr-10 06:29N 28°08' W 015°24'0 0.0
2018-Apr-10 05:56N 28°07' W 015°24'0 0.0
2018-Apr-10 05:29N 28°07' W 015°24'0 0.0
2018-Apr-10 04:59N 28°07' W 015°24'0 0.0
2018-Apr-10 04:29N 28°07' W 015°24'0 0.0
2018-Apr-10 03:47N 28°07' W 015°24'0 0.0
2018-Apr-10 03:29N 28°07' W 015°24'0 0.0
2018-Apr-10 02:59N 28°07' W 015°24'0 0.0
2018-Apr-10 02:20N 28°07' W 015°24'0 0.0
2018-Apr-10 01:50N 28°07' W 015°24'0 0.0
2018-Apr-10 01:20N 28°07' W 015°24'0 0.0
2018-Apr-10 00:53N 28°07' W 015°24'0 0.0
2018-Apr-10 00:23N 28°07' W 015°24'0 0.0
2018-Apr-09 23:53N 28°07' W 015°24'0 0.0
2018-Apr-09 23:23N 28°07' W 015°24'0 0.0
2018-Apr-09 22:53N 28°07' W 015°24'0 0.0
2018-Apr-09 22:23N 28°07' W 015°24'0 0.0
2018-Apr-09 21:53N 28°07' W 015°24'0 0.0
2018-Apr-09 21:26N 28°07' W 015°24'0 0.0
2018-Apr-09 20:56N 28°07' W 015°24'0 0.0
2018-Apr-09 20:26N 28°07' W 015°24'0 0.0
2018-Apr-09 19:56N 28°07' W 015°24'0 0.0
2018-Apr-09 19:26N 28°07' W 015°24'0 0.0
2018-Apr-09 18:59N 28°07' W 015°24'0 0.0
2018-Apr-09 18:29N 28°07' W 015°24'0 0.0
2018-Apr-09 17:59N 28°07' W 015°24'0 0.1
2018-Apr-09 17:29N 28°07' W 015°24'0 0.0
2018-Apr-09 16:59N 28°07' W 015°24'0 0.0
2018-Apr-09 16:29N 28°07' W 015°24'0 0.0
2018-Apr-09 15:59N 28°07' W 015°24'0 0.0
2018-Apr-09 15:29N 28°07' W 015°24'0 0.0
2018-Apr-09 14:59N 28°07' W 015°24'0 0.0
2018-Apr-09 14:29N 28°08' W 015°24'0 0.6
2018-Apr-09 14:01N 28°07' W 015°24'0 0.7
2018-Apr-09 13:30N 28°07' W 015°23'1 2.2
2018-Apr-09 13:00N 28°08' W 015°22'2 4.2
2018-Apr-09 12:30N 28°09' W 015°20'611.4
2018-Apr-09 12:00N 28°14' W 015°16'612.0
2018-Apr-09 11:30N 28°18' W 015°11'612.3
2018-Apr-09 11:01N 28°23' W 015°07'612.2
2018-Apr-09 10:30N 28°27' W 015°02'612.0
2018-Apr-09 10:00N 28°31' W 014°57'612.1
2018-Apr-09 09:29N 28°36' W 014°52'  

Dump ship's entire track history